St Thomas, Virgin Islands
Current Conditions -  °F | °C
As of 8:53 PM on Sunday 23 Nov 2014 (Local Time) from TJNR Reporting Station
Overcast Overcast  
Wind Chill: 28°   Ceiling: 7000
Heat Index: 30°   Visibility: 10mi
Dew Point: 21°   Wind: 12mph
Humidity: 67%   Direction: 80°E
Pressure: 30.05"   Gusts: NA
Location:  18.3436°N, 64.9322°W
Report Text: TJNR 240053Z AUTO 08010KT 10SM FEW060 OVC070 28/21 A3005 RMK AO2 SLP176 T02780211 $
Loading
Personal Weather Stations






























Interactive Weather Map New forecast layout! Learn more

10-Day Weather Forecast

Advertisements
Track Severe Weather on mobile